TimeCDT,TemperatureF,Dew PointF,Humidity,Sea Level PressureIn,VisibilityMPH,Wind Direction,Wind SpeedMPH,Gust SpeedMPH,PrecipitationIn,Events,Conditions,WindDirDegrees,DateUTC
12:53 AM,59.0,50.0,72,29.98,10.0,South,4.6,-,N/A,,Clear,180,2012-10-04 05:53:00
1:53 AM,57.9,50.0,75,30.00,10.0,South,5.8,-,N/A,,Clear,180,2012-10-04 06:53:00
2:53 AM,60.1,51.1,72,30.00,10.0,South,6.9,-,N/A,,Clear,190,2012-10-04 07:53:00
3:53 AM,60.1,51.1,72,29.98,10.0,South,8.1,-,N/A,,Clear,190,2012-10-04 08:53:00
4:53 AM,61.0,52.0,72,30.00,10.0,SSW,8.1,-,N/A,,Clear,210,2012-10-04 09:53:00
5:53 AM,60.1,52.0,75,30.04,10.0,SW,8.1,-,N/A,,Scattered Clouds,220,2012-10-04 10:53:00
6:53 AM,60.1,52.0,75,30.08,10.0,West,3.5,-,N/A,,Clear,270,2012-10-04 11:53:00
7:53 AM,57.9,44.1,60,30.09,10.0,North,5.8,-,N/A,,Partly Cloudy,360,2012-10-04 12:53:00
8:53 AM,57.9,44.1,60,30.12,10.0,North,6.9,-,N/A,,Clear,350,2012-10-04 13:53:00
9:53 AM,57.9,43.0,58,30.16,10.0,North,16.1,20.7,N/A,,Clear,350,2012-10-04 14:53:00
10:53 AM,57.0,43.0,59,30.19,10.0,NNW,10.4,-,N/A,,Scattered Clouds,340,2012-10-04 15:53:00
11:53 AM,57.9,44.1,60,30.18,10.0,North,12.7,19.6,N/A,,Mostly Cloudy,360,2012-10-04 16:53:00
12:53 PM,57.9,43.0,58,30.20,10.0,North,16.1,-,N/A,,Scattered Clouds,10,2012-10-04 17:53:00
1:53 PM,57.0,41.0,55,30.20,10.0,North,10.4,-,N/A,,Mostly Cloudy,350,2012-10-04 18:53:00
2:53 PM,55.0,41.0,59,30.21,10.0,NNW,11.5,-,N/A,,Scattered Clouds,340,2012-10-04 19:53:00
3:53 PM,51.1,39.0,63,30.22,10.0,NNW,13.8,-,N/A,,Overcast,340,2012-10-04 20:53:00
5:53 PM,50.0,37.0,61,30.23,10.0,NNE,6.9,-,0.00,,Overcast,20,2012-10-04 22:53:00
6:53 PM,50.0,37.9,63,30.22,10.0,NNE,6.9,-,N/A,,Overcast,20,2012-10-04 23:53:00
7:53 PM,50.0,41.0,71,30.22,10.0,NNE,5.8,-,0.00,Rain,Light Rain,30,2012-10-05 00:53:00
8:53 PM,48.9,44.1,83,30.23,10.0,North,3.5,-,0.00,,Overcast,10,2012-10-05 01:53:00
9:53 PM,50.0,44.1,80,30.22,10.0,North,5.8,-,N/A,,Overcast,10,2012-10-05 02:53:00
10:53 PM,51.1,43.0,74,30.24,10.0,Calm,Calm,-,N/A,,Overcast,0,2012-10-05 03:53:00
11:53 PM,51.1,43.0,74,30.24,10.0,North,5.8,-,N/A,,Overcast,350,2012-10-05 04:53:00